Time;durP1;ratioP1;P1;durP2;ratioP2;P2;SDS_P1;SDS_P2;PMS_P1;PMS_P2;Temp;Humidity;BMP_temperature;BMP_pressure;BME280_temperature;BME280_humidity;BME280_pressure;Samples;Min_cycle;Max_cycle;Signal;HPM_P1;HPM_P2
2021/03/27 00:00:35;;;;;;;2.63;2.03;;;13.10;99.90;;;;;;5039919;28;20488;-71
2021/03/27 00:03:09;;;;;;;3.97;2.60;;;13.20;99.90;;;;;;5039842;28;20538;-69
2021/03/27 00:05:41;;;;;;;8.10;3.53;;;13.10;99.90;;;;;;5037724;28;20482;-73
2021/03/27 00:08:16;;;;;;;5.57;3.30;;;13.00;99.90;;;;;;5039356;28;20555;-70
2021/03/27 00:10:54;;;;;;;4.63;2.63;;;13.10;99.90;;;;;;5034588;28;20462;-73
2021/03/27 00:13:30;;;;;;;3.87;2.60;;;13.00;99.90;;;;;;5045264;28;20455;-70
2021/03/27 00:16:02;;;;;;;4.00;3.33;;;12.90;99.90;;;;;;5037904;28;21044;-72
2021/03/27 00:18:41;;;;;;;13.13;4.97;;;12.90;99.90;;;;;;5043014;28;20442;-70
2021/03/27 00:21:14;;;;;;;2.93;2.63;;;12.60;99.90;;;;;;5041584;28;20459;-70
2021/03/27 00:23:50;;;;;;;3.87;3.10;;;11.80;99.90;;;;;;5042032;28;20555;-69
2021/03/27 00:26:23;;;;;;;5.20;3.23;;;11.20;99.90;;;;;;5043303;28;20562;-72
2021/03/27 00:28:55;;;;;;;5.70;3.90;;;11.00;99.90;;;;;;5044735;28;20455;-71
2021/03/27 00:31:26;;;;;;;4.83;2.83;;;10.80;99.90;;;;;;5045641;28;20458;-71
2021/03/27 00:33:55;;;;;;;3.80;3.00;;;10.50;99.90;;;;;;5046867;28;20443;-71
2021/03/27 00:36:24;;;;;;;4.00;2.77;;;10.50;99.90;;;;;;5039318;28;21966;-72
2021/03/27 00:38:55;;;;;;;2.03;1.67;;;10.30;99.90;;;;;;5042680;28;20869;-69
2021/03/27 00:41:30;;;;;;;3.70;3.30;;;10.20;99.90;;;;;;5043205;28;20466;-73
2021/03/27 00:44:00;;;;;;;5.83;3.23;;;10.20;99.90;;;;;;5048702;28;20537;-69
2021/03/27 00:46:27;;;;;;;2.60;2.40;;;10.20;99.90;;;;;;5047149;28;20816;-72
2021/03/27 00:49:00;;;;;;;2.50;2.30;;;10.10;99.90;;;;;;5040952;28;20546;-70
2021/03/27 00:51:29;;;;;;;3.50;2.27;;;10.00;99.90;;;;;;5039110;28;20538;-70
2021/03/27 00:54:02;;;;;;;3.90;2.70;;;9.80;99.90;;;;;;5040533;28;20875;-71
2021/03/27 00:56:31;;;;;;;2.60;1.90;;;9.70;99.90;;;;;;5045334;28;20461;-70
2021/03/27 00:59:01;;;;;;;3.63;2.33;;;9.70;99.90;;;;;;5042273;28;20458;-69
2021/03/27 01:01:34;;;;;;;2.60;1.40;;;9.50;99.90;;;;;;5042635;28;20886;-69
2021/03/27 01:04:03;;;;;;;1.50;1.20;;;9.50;99.90;;;;;;5041286;28;20480;-70
2021/03/27 01:06:33;;;;;;;2.27;2.03;;;9.20;99.90;;;;;;5042653;28;20502;-71
2021/03/27 01:09:02;;;;;;;3.00;2.17;;;9.10;99.90;;;;;;5039120;28;20502;-70
2021/03/27 01:11:32;;;;;;;4.83;2.90;;;9.00;99.90;;;;;;5040876;28;20498;-71
2021/03/27 01:14:04;;;;;;;3.83;1.80;;;8.90;99.90;;;;;;5043790;28;20466;-70
2021/03/27 01:16:35;;;;;;;5.40;2.27;;;8.80;99.90;;;;;;5038299;28;20570;-71
2021/03/27 01:19:05;;;;;;;3.70;2.80;;;8.90;99.90;;;;;;5040444;28;20474;-71
2021/03/27 01:21:35;;;;;;;3.30;2.47;;;8.60;99.90;;;;;;5049828;28;20450;-71
2021/03/27 01:24:13;;;;;;;2.47;1.73;;;8.40;99.90;;;;;;5047473;28;20462;-71
2021/03/27 01:26:45;;;;;;;2.80;2.23;;;8.10;99.90;;;;;;5038809;28;20500;-70
2021/03/27 01:29:20;;;;;;;4.50;2.73;;;8.10;99.90;;;;;;5048551;28;20495;-71
2021/03/27 01:31:52;;;;;;;2.50;2.10;;;8.10;99.90;;;;;;5042176;28;20434;-71
2021/03/27 01:34:25;;;;;;;5.03;2.50;;;8.10;99.90;;;;;;5039798;28;21017;-70
2021/03/27 01:36:59;;;;;;;2.80;1.80;;;8.00;99.90;;;;;;5047430;28;20533;-71
2021/03/27 01:39:29;;;;;;;3.60;2.60;;;8.10;99.90;;;;;;5042922;28;20834;-74
2021/03/27 01:42:04;;;;;;;4.90;3.00;;;8.10;99.90;;;;;;5043708;28;20428;-71
2021/03/27 01:44:58;;;;;;;6.13;3.40;;;8.10;99.90;;;;;;5043357;28;20491;-73
2021/03/27 01:47:31;;;;;;;3.17;2.10;;;8.10;99.90;;;;;;5040846;28;20473;-71
2021/03/27 01:50:12;;;;;;;7.57;3.77;;;8.00;99.90;;;;;;5046355;28;20447;-73
2021/03/27 01:53:05;;;;;;;5.33;4.27;;;8.00;99.90;;;;;;5038263;28;20433;-74
2021/03/27 01:55:57;;;;;;;4.83;4.00;;;8.00;99.90;;;;;;5043020;28;21025;-71
2021/03/27 01:58:27;;;;;;;5.23;3.47;;;7.90;99.90;;;;;;5042555;28;20529;-70
2021/03/27 02:01:05;;;;;;;7.43;3.67;;;7.60;99.90;;;;;;5048054;28;20458;-71
2021/03/27 02:03:38;;;;;;;8.10;5.07;;;7.60;99.90;;;;;;5042703;28;20585;-71
2021/03/27 02:06:09;;;;;;;6.00;4.77;;;7.60;99.90;;;;;;5049719;28;20574;-71
2021/03/27 02:08:45;;;;;;;6.97;2.43;;;7.70;99.90;;;;;;5041684;28;20492;-70
2021/03/27 02:11:22;;;;;;;4.13;3.17;;;7.80;99.90;;;;;;5040916;28;20541;-70
2021/03/27 02:13:56;;;;;;;9.23;3.20;;;7.70;99.90;;;;;;5044990;28;20429;-72
2021/03/27 02:16:31;;;;;;;5.10;2.93;;;7.70;99.90;;;;;;5039823;28;20481;-71
2021/03/27 02:19:18;;;;;;;6.33;3.20;;;7.70;99.90;;;;;;5045373;28;20429;-71
2021/03/27 02:21:52;;;;;;;6.87;2.87;;;7.70;99.90;;;;;;5046269;28;20484;-71
2021/03/27 02:25:06;;;;;;;5.60;3.37;;;7.80;99.90;;;;;;5038484;28;20595;-70
2021/03/27 02:27:38;;;;;;;5.97;2.83;;;7.50;99.90;;;;;;4977303;28;20457;-69
2021/03/27 02:30:12;;;;;;;3.07;2.53;;;7.50;99.90;;;;;;5047717;28;20723;-71
2021/03/27 02:33:17;;;;;;;2.07;1.83;;;7.40;99.90;;;;;;5040534;28;20454;-72
2021/03/27 02:35:52;;;;;;;4.43;4.03;;;7.50;99.90;;;;;;5019220;28;21377;-72
2021/03/27 02:38:30;;;;;;;3.47;2.20;;;7.60;99.90;;;;;;5046033;28;20513;-70
2021/03/27 02:41:04;;;;;;;1.57;1.33;;;7.60;99.90;;;;;;5041651;28;20452;-72
2021/03/27 02:43:36;;;;;;;4.03;2.50;;;7.60;99.90;;;;;;5045156;28;20434;-70
2021/03/27 02:46:11;;;;;;;2.93;2.60;;;7.60;99.90;;;;;;5042029;28;20518;-71
2021/03/27 02:48:48;;;;;;;3.97;3.07;;;7.50;99.90;;;;;;5040446;28;20437;-70
2021/03/27 02:51:23;;;;;;;3.63;2.47;;;7.50;99.90;;;;;;5038613;28;20461;-73
2021/03/27 02:54:04;;;;;;;5.13;1.90;;;7.50;99.90;;;;;;5045438;28;20433;-69
2021/03/27 02:56:38;;;;;;;2.97;1.80;;;7.40;99.90;;;;;;5043527;28;20675;-69
2021/03/27 02:59:21;;;;;;;2.93;1.90;;;7.50;99.90;;;;;;5042415;28;20479;-69
2021/03/27 03:01:57;;;;;;;5.67;2.57;;;7.50;99.90;;;;;;5043564;28;20926;-69
2021/03/27 03:04:34;;;;;;;2.70;2.30;;;7.50;99.90;;;;;;5040645;28;20439;-70
2021/03/27 03:07:08;;;;;;;4.10;1.80;;;7.50;99.90;;;;;;5039582;28;20952;-70
2021/03/27 03:09:48;;;;;;;2.03;1.83;;;7.30;99.90;;;;;;5041570;28;21038;-71
2021/03/27 03:12:21;;;;;;;9.67;2.57;;;7.30;99.90;;;;;;5051615;28;20523;-71
2021/03/27 03:14:56;;;;;;;2.30;2.10;;;7.20;99.90;;;;;;5042116;28;20482;-70
2021/03/27 03:17:32;;;;;;;3.03;2.50;;;7.30;99.90;;;;;;5039721;28;20509;-70
2021/03/27 03:20:09;;;;;;;5.57;2.80;;;7.30;99.90;;;;;;5041695;28;20488;-70
2021/03/27 03:22:40;;;;;;;2.57;2.30;;;7.50;99.90;;;;;;5050010;28;20863;-70
2021/03/27 03:25:11;;;;;;;4.10;3.60;;;7.50;99.90;;;;;;5040499;28;20456;-70
2021/03/27 03:28:00;;;;;;;2.30;1.80;;;7.50;99.90;;;;;;5047361;28;20542;-70
2021/03/27 03:30:31;;;;;;;3.73;2.90;;;7.60;99.90;;;;;;5042369;28;20564;-70
2021/03/27 03:33:23;;;;;;;2.57;1.60;;;7.50;99.90;;;;;;5050463;28;20455;-73
2021/03/27 03:35:55;;;;;;;4.23;3.83;;;7.40;99.90;;;;;;5045119;28;20461;-70
2021/03/27 03:38:50;;;;;;;2.40;1.40;;;7.40;99.90;;;;;;5040920;28;20910;-73
2021/03/27 03:41:31;;;;;;;5.40;3.83;;;7.30;99.90;;;;;;5043711;28;20490;-70
2021/03/27 03:44:00;;;;;;;4.37;3.37;;;7.30;99.90;;;;;;5047634;28;20495;-70
2021/03/27 03:46:36;;;;;;;9.63;3.57;;;7.40;99.90;;;;;;5048143;28;20496;-70
2021/03/27 03:49:40;;;;;;;3.67;2.20;;;7.40;99.90;;;;;;5044467;28;20447;-70
2021/03/27 03:52:20;;;;;;;4.67;2.30;;;7.40;99.90;;;;;;5041855;28;20816;-70
2021/03/27 03:55:02;;;;;;;5.77;2.60;;;7.50;99.90;;;;;;5043866;28;20482;-70
2021/03/27 03:57:59;;;;;;;3.43;2.90;;;7.50;99.90;;;;;;5046293;28;20468;-70
2021/03/27 04:00:30;;;;;;;1.93;1.73;;;7.60;99.90;;;;;;5043228;28;20458;-70
2021/03/27 04:03:12;;;;;;;10.73;2.87;;;7.50;99.90;;;;;;5044880;28;20543;-72
2021/03/27 04:05:43;;;;;;;6.10;2.80;;;7.50;99.90;;;;;;5045751;28;20497;-69
2021/03/27 04:08:17;;;;;;;2.27;2.07;;;7.40;99.90;;;;;;5044083;28;20551;-70
2021/03/27 04:10:46;;;;;;;2.00;1.80;;;7.50;99.90;;;;;;5040804;28;20430;-72
2021/03/27 04:13:18;;;;;;;10.37;3.10;;;7.30;99.90;;;;;;5050279;28;20541;-70
2021/03/27 04:15:48;;;;;;;6.57;2.87;;;7.30;99.90;;;;;;5037310;28;21523;-74
2021/03/27 04:18:28;;;;;;;5.03;2.17;;;7.30;99.90;;;;;;5043431;28;20563;-73
2021/03/27 04:21:01;;;;;;;4.10;2.30;;;7.30;99.90;;;;;;5043322;28;20525;-69
2021/03/27 04:23:38;;;;;;;2.60;1.27;;;7.30;99.90;;;;;;5043457;28;20851;-69
2021/03/27 04:26:22;;;;;;;5.33;1.40;;;7.40;99.90;;;;;;5050627;28;21087;-68
2021/03/27 04:29:19;;;;;;;3.60;2.30;;;7.40;99.90;;;;;;5047844;28;20552;-69
2021/03/27 04:31:53;;;;;;;7.63;3.10;;;7.30;99.90;;;;;;4996539;28;20464;-70
2021/03/27 04:34:27;;;;;;;7.43;2.40;;;7.40;99.90;;;;;;5038419;28;20437;-69
2021/03/27 04:37:03;;;;;;;3.90;1.87;;;7.30;99.90;;;;;;5048178;28;20440;-70
2021/03/27 04:39:36;;;;;;;3.87;2.23;;;7.30;99.90;;;;;;5042991;28;20455;-68
2021/03/27 04:42:12;;;;;;;3.20;1.63;;;7.40;99.90;;;;;;5041126;28;20543;-71
2021/03/27 04:44:47;;;;;;;1.77;1.53;;;7.30;99.90;;;;;;5034599;28;20433;-71
2021/03/27 04:47:20;;;;;;;5.83;2.90;;;7.30;99.90;;;;;;5042245;28;20521;-70
2021/03/27 04:49:55;;;;;;;2.83;2.33;;;7.20;99.90;;;;;;5042686;28;21012;-70
2021/03/27 04:52:36;;;;;;;2.03;1.73;;;7.00;99.90;;;;;;5033873;28;20497;-73
2021/03/27 04:55:23;;;;;;;2.20;2.00;;;7.10;99.90;;;;;;5040844;28;20489;-70
2021/03/27 04:58:04;;;;;;;2.10;1.90;;;7.20;99.90;;;;;;5039292;28;20499;-71
2021/03/27 05:00:51;;;;;;;2.73;2.10;;;7.20;99.90;;;;;;5040024;28;20515;-73
2021/03/27 05:03:26;;;;;;;4.10;2.93;;;7.20;99.90;;;;;;5032410;28;20526;-72
2021/03/27 05:05:58;;;;;;;3.30;1.50;;;7.00;99.90;;;;;;5038066;28;20909;-71
2021/03/27 05:08:51;;;;;;;3.00;1.97;;;7.10;99.90;;;;;;5042787;28;20478;-70
2021/03/27 05:11:29;;;;;;;4.67;2.07;;;7.10;99.90;;;;;;5043191;28;20485;-70
2021/03/27 05:14:08;;;;;;;2.00;1.67;;;7.00;99.90;;;;;;5050222;28;20845;-72
2021/03/27 05:16:40;;;;;;;3.53;2.00;;;7.00;99.90;;;;;;5046423;28;20870;-71
2021/03/27 05:19:12;;;;;;;2.50;1.37;;;7.00;99.90;;;;;;5042758;28;20443;-70
2021/03/27 05:21:59;;;;;;;2.73;2.27;;;7.00;99.90;;;;;;5044610;28;20512;-71
2021/03/27 05:24:33;;;;;;;2.40;1.70;;;7.10;99.90;;;;;;5041437;28;20851;-70
2021/03/27 05:27:23;;;;;;;1.03;0.93;;;7.10;99.90;;;;;;5047211;28;20537;-70
2021/03/27 05:29:58;;;;;;;4.50;1.67;;;7.00;99.90;;;;;;5040756;28;20455;-71
2021/03/27 05:32:36;;;;;;;1.00;0.80;;;7.10;99.90;;;;;;5042689;28;20433;-71
2021/03/27 05:35:13;;;;;;;1.97;1.20;;;7.10;99.90;;;;;;5044548;28;20448;-70
2021/03/27 05:37:52;;;;;;;1.40;1.20;;;7.10;99.90;;;;;;5042230;28;20536;-71
2021/03/27 05:41:07;;;;;;;1.57;1.30;;;7.10;99.90;;;;;;5041075;28;20486;-70
2021/03/27 05:44:05;;;;;;;13.93;2.60;;;7.10;99.90;;;;;;4972289;28;20476;-71
2021/03/27 05:47:11;;;;;;;3.10;2.40;;;7.00;99.90;;;;;;5039931;28;20523;-70
2021/03/27 05:50:02;;;;;;;4.73;2.00;;;7.00;99.90;;;;;;5046820;28;20434;-69
2021/03/27 05:53:00;;;;;;;4.17;1.83;;;7.10;99.90;;;;;;5045581;28;20486;-70
2021/03/27 05:55:40;;;;;;;1.60;1.50;;;7.20;99.90;;;;;;5043956;28;20474;-71
2021/03/27 05:58:27;;;;;;;1.97;1.80;;;7.30;99.90;;;;;;5040319;28;20442;-70
2021/03/27 06:01:00;;;;;;;2.13;2.03;;;7.20;99.90;;;;;;5045579;28;20478;-70
2021/03/27 06:03:59;;;;;;;9.90;3.20;;;7.20;99.90;;;;;;5048054;28;20434;-73
2021/03/27 06:06:43;;;;;;;2.90;1.27;;;7.20;99.90;;;;;;5042817;28;20456;-74
2021/03/27 06:09:34;;;;;;;2.50;1.23;;;7.10;99.90;;;;;;5047846;28;22791;-69
2021/03/27 06:12:29;;;;;;;7.33;2.27;;;7.20;99.90;;;;;;5041958;28;20458;-73
2021/03/27 06:15:23;;;;;;;2.10;1.90;;;7.00;99.90;;;;;;5042119;28;20488;-70
2021/03/27 06:18:23;;;;;;;9.60;2.70;;;6.90;99.90;;;;;;5041276;28;20562;-70
2021/03/27 06:21:05;;;;;;;1.30;0.97;;;6.90;99.90;;;;;;5051422;28;20448;-70
2021/03/27 06:24:07;;;;;;;1.50;1.40;;;7.00;99.90;;;;;;5035893;28;21210;-71
2021/03/27 06:27:14;;;;;;;3.80;2.03;;;7.10;99.90;;;;;;5041369;28;21005;-70
2021/03/27 06:30:15;;;;;;;1.07;0.83;;;7.20;99.90;;;;;;5041757;28;20510;-68
2021/03/27 06:33:15;;;;;;;2.10;1.43;;;7.20;99.90;;;;;;5028779;28;20473;-70
2021/03/27 06:35:57;;;;;;;3.20;2.90;;;7.10;99.90;;;;;;5034145;28;21052;-72
2021/03/27 06:39:05;;;;;;;3.60;2.83;;;6.80;99.90;;;;;;5036829;28;20519;-73
2021/03/27 06:42:02;;;;;;;2.27;1.37;;;7.00;99.90;;;;;;5036875;28;20459;-69
2021/03/27 06:44:57;;;;;;;5.13;2.70;;;7.10;99.90;;;;;;5039899;28;20798;-73
2021/03/27 06:47:35;;;;;;;4.00;3.07;;;7.20;99.90;;;;;;5019665;28;20466;-69
2021/03/27 06:50:32;;;;;;;3.13;2.30;;;7.40;99.90;;;;;;5028006;28;21049;-70
2021/03/27 06:53:28;;;;;;;7.20;3.07;;;7.40;99.90;;;;;;5038798;28;21000;-69
2021/03/27 06:56:12;;;;;;;1.43;1.33;;;7.70;99.90;;;;;;5040743;28;20482;-72
2021/03/27 06:59:05;;;;;;;1.07;0.90;;;7.80;99.90;;;;;;5042878;28;20471;-72
2021/03/27 07:02:11;;;;;;;11.20;3.10;;;7.90;99.90;;;;;;5042487;28;20959;-71
2021/03/27 07:05:23;;;;;;;2.70;1.67;;;7.90;99.90;;;;;;5036078;28;20430;-70
2021/03/27 07:08:08;;;;;;;13.07;3.37;;;7.70;99.90;;;;;;5044790;28;20922;-71
2021/03/27 07:11:09;;;;;;;3.27;1.83;;;7.70;99.90;;;;;;5041308;28;20983;-69
2021/03/27 07:14:08;;;;;;;3.10;1.70;;;7.90;99.90;;;;;;5037135;28;20433;-69
2021/03/27 07:16:41;;;;;;;6.03;2.87;;;8.20;99.90;;;;;;5035409;28;20438;-69
2021/03/27 07:19:43;;;;;;;4.90;2.80;;;8.50;99.90;;;;;;5037943;28;20921;-70
2021/03/27 07:22:27;;;;;;;2.23;1.80;;;8.40;99.90;;;;;;5039944;28;20438;-74
2021/03/27 07:25:24;;;;;;;3.50;2.20;;;8.10;99.90;;;;;;5034915;28;21002;-71
2021/03/27 07:28:19;;;;;;;7.70;2.80;;;7.90;99.90;;;;;;5015204;28;21989;-73
2021/03/27 07:31:16;;;;;;;3.23;2.10;;;7.50;99.90;;;;;;5014351;28;20497;-69
2021/03/27 07:34:16;;;;;;;2.63;2.40;;;7.20;99.90;;;;;;5030294;28;20453;-68
2021/03/27 07:37:30;;;;;;;1.70;1.40;;;7.20;99.90;;;;;;5010119;28;20835;-69
2021/03/27 07:40:25;;;;;;;3.00;0.93;;;6.30;99.90;;;;;;4936766;28;21114;-70
2021/03/27 07:43:17;;;;;;;1.10;1.00;;;5.60;99.90;;;;;;5027033;28;20432;-68
2021/03/27 07:46:20;;;;;;;1.33;1.20;;;5.50;99.90;;;;;;5037502;28;20477;-69
2021/03/27 07:49:41;;;;;;;1.20;1.00;;;5.30;99.90;;;;;;5040300;28;20437;-68
2021/03/27 07:52:30;;;;;;;1.30;1.10;;;5.20;99.90;;;;;;5044990;28;20451;-70
2021/03/27 07:55:41;;;;;;;1.00;0.80;;;4.90;99.90;;;;;;5040243;28;20487;-68
2021/03/27 07:58:47;;;;;;;1.53;1.30;;;5.10;99.90;;;;;;5040780;28;20453;-69
2021/03/27 08:01:58;;;;;;;1.00;0.90;;;5.20;99.90;;;;;;5042346;28;20464;-72
2021/03/27 08:05:09;;;;;;;1.03;0.93;;;5.30;99.90;;;;;;5036403;28;21054;-71
2021/03/27 08:08:02;;;;;;;1.00;0.90;;;5.40;99.90;;;;;;5034241;28;20451;-68
2021/03/27 08:10:40;;;;;;;1.00;0.90;;;5.40;99.90;;;;;;5038560;28;20482;-70
2021/03/27 08:13:34;;;;;;;1.43;0.97;;;5.50;99.90;;;;;;5037982;28;20509;-70
2021/03/27 08:16:27;;;;;;;1.27;1.17;;;5.70;99.90;;;;;;5039764;28;20546;-70
2021/03/27 08:19:23;;;;;;;1.23;1.00;;;6.00;99.90;;;;;;5039632;28;20474;-69
2021/03/27 08:22:06;;;;;;;4.03;2.47;;;6.30;99.90;;;;;;5044108;28;20455;-69
2021/03/27 08:24:48;;;;;;;1.00;0.80;;;6.50;99.90;;;;;;5042283;28;20954;-69
2021/03/27 08:27:48;;;;;;;1.30;1.20;;;6.50;99.90;;;;;;5041347;28;20475;-69
2021/03/27 08:31:01;;;;;;;19.23;1.43;;;6.20;99.90;;;;;;5045200;28;20421;-69
2021/03/27 08:33:47;;;;;;;1.03;0.77;;;6.00;99.90;;;;;;5046791;28;20914;-70
2021/03/27 08:36:40;;;;;;;1.00;0.80;;;5.90;99.90;;;;;;5049973;28;20850;-70
2021/03/27 08:39:42;;;;;;;1.67;1.43;;;6.00;99.90;;;;;;5043509;28;20483;-70
2021/03/27 08:42:20;;;;;;;1.10;0.90;;;6.10;99.90;;;;;;5034355;28;20929;-70
2021/03/27 08:45:14;;;;;;;1.10;0.90;;;6.10;99.90;;;;;;5050657;28;20433;-70
2021/03/27 08:48:00;;;;;;;1.40;1.20;;;6.10;99.90;;;;;;5039382;28;20499;-69
2021/03/27 08:50:50;;;;;;;3.97;1.70;;;6.20;99.90;;;;;;5049774;28;21187;-70
2021/03/27 08:53:50;;;;;;;1.83;1.13;;;6.60;99.90;;;;;;5053328;28;20415;-70
2021/03/27 08:57:02;;;;;;;2.60;1.80;;;7.10;99.90;;;;;;5042246;28;20561;-70
2021/03/27 09:00:00;;;;;;;1.47;1.27;;;7.20;99.90;;;;;;5043431;28;20447;-69
2021/03/27 09:02:59;;;;;;;6.60;1.93;;;7.50;99.90;;;;;;5047218;28;20454;-69
2021/03/27 09:05:43;;;;;;;2.83;1.93;;;7.80;99.90;;;;;;5055789;28;20456;-69
2021/03/27 09:08:31;;;;;;;4.73;3.27;;;8.10;99.90;;;;;;5042385;28;20475;-69
2021/03/27 09:11:20;;;;;;;1.10;0.90;;;8.30;99.90;;;;;;5045151;28;20927;-68
2021/03/27 09:14:09;;;;;;;2.90;1.67;;;8.20;99.90;;;;;;5045071;28;20455;-69
2021/03/27 09:17:15;;;;;;;1.87;1.40;;;8.30;99.90;;;;;;5048062;28;20447;-69
2021/03/27 09:19:58;;;;;;;1.87;1.17;;;8.30;99.90;;;;;;5024119;28;21202;-71
2021/03/27 09:22:49;;;;;;;3.87;2.17;;;8.40;99.90;;;;;;5047644;28;20452;-71
2021/03/27 09:25:29;;;;;;;1.50;1.33;;;9.20;99.90;;;;;;5043085;28;20483;-71
2021/03/27 09:28:16;;;;;;;1.70;1.23;;;10.20;99.90;;;;;;5046152;28;20425;-70
2021/03/27 09:31:03;;;;;;;7.20;1.67;;;10.90;99.90;;;;;;5045783;28;20454;-71
2021/03/27 09:33:34;;;;;;;1.67;1.30;;;11.50;99.90;;;;;;5041530;28;20432;-70
2021/03/27 09:36:18;;;;;;;3.13;2.20;;;12.30;99.90;;;;;;5040665;28;20462;-70
2021/03/27 09:38:52;;;;;;;1.33;1.23;;;12.60;99.90;;;;;;5036633;28;20442;-70
2021/03/27 09:41:56;;;;;;;5.57;2.57;;;12.40;99.90;;;;;;5045716;28;20505;-70
2021/03/27 09:45:00;;;;;;;5.37;2.50;;;12.60;99.90;;;;;;5044166;28;20487;-69
2021/03/27 09:48:05;;;;;;;3.77;1.93;;;13.50;99.90;;;;;;5018806;28;20482;-71
2021/03/27 09:50:39;;;;;;;11.93;1.93;;;13.50;99.90;;;;;;5046151;28;20480;-70
2021/03/27 09:53:18;;;;;;;3.60;2.30;;;12.70;99.90;;;;;;5044166;28;20463;-69
2021/03/27 09:55:54;;;;;;;2.13;1.53;;;11.30;99.90;;;;;;5046153;28;20513;-69
2021/03/27 09:59:06;;;;;;;1.40;0.97;;;8.80;99.90;;;;;;5040885;28;22430;-69
2021/03/27 10:01:37;;;;;;;1.77;1.67;;;6.50;99.90;;;;;;5022457;28;20497;-68
2021/03/27 10:04:13;;;;;;;1.00;0.80;;;5.70;99.90;;;;;;5044293;28;20437;-69
2021/03/27 10:07:02;;;;;;;2.17;0.73;;;5.40;99.90;;;;;;5046010;28;21027;-69
2021/03/27 10:09:38;;;;;;;1.00;0.90;;;4.80;99.90;;;;;;5048801;28;20486;-69
2021/03/27 10:12:13;;;;;;;1.00;0.80;;;4.60;99.90;;;;;;5045548;28;20433;-70
2021/03/27 10:14:49;;;;;;;1.40;1.07;;;4.20;99.90;;;;;;5040476;28;20848;-69
2021/03/27 10:17:24;;;;;;;2.03;0.70;;;4.40;99.90;;;;;;5043624;28;20436;-70
2021/03/27 10:19:55;;;;;;;2.90;1.30;;;4.70;99.90;;;;;;5038666;28;20476;-69
2021/03/27 10:22:33;;;;;;;1.20;0.80;;;5.10;99.90;;;;;;5038031;28;20592;-71
2021/03/27 10:25:08;;;;;;;1.00;0.70;;;5.30;99.90;;;;;;5042016;28;20470;-70
2021/03/27 10:27:43;;;;;;;1.40;1.17;;;5.70;99.90;;;;;;5043239;28;20448;-69
2021/03/27 10:30:20;;;;;;;1.30;1.20;;;5.90;99.90;;;;;;5037091;28;21005;-70
2021/03/27 10:33:18;;;;;;;0.90;0.73;;;6.00;99.90;;;;;;5046914;28;20426;-69
2021/03/27 10:36:20;;;;;;;1.40;0.90;;;6.30;99.90;;;;;;5042078;28;20871;-71
2021/03/27 10:39:13;;;;;;;1.47;0.90;;;6.40;99.90;;;;;;5043641;28;20444;-70
2021/03/27 10:42:06;;;;;;;1.13;0.90;;;7.40;99.90;;;;;;5038850;28;20434;-70
2021/03/27 10:44:41;;;;;;;1.40;1.00;;;9.00;99.90;;;;;;5015780;28;20448;-70
2021/03/27 10:47:15;;;;;;;1.30;1.10;;;10.50;99.90;;;;;;5034418;28;20932;-70
2021/03/27 10:49:50;;;;;;;2.70;1.20;;;10.70;99.90;;;;;;5029749;28;20455;-72
2021/03/27 10:52:46;;;;;;;2.13;1.37;;;10.60;99.90;;;;;;5027908;28;20429;-73
2021/03/27 10:55:39;;;;;;;1.83;1.67;;;10.90;99.90;;;;;;5027742;28;20694;-71
2021/03/27 10:58:36;;;;;;;1.57;1.27;;;10.70;99.90;;;;;;5027459;28;20847;-70
2021/03/27 11:01:51;;;;;;;5.63;1.33;;;11.10;99.90;;;;;;5023235;28;20868;-69
2021/03/27 11:04:59;;;;;;;2.33;1.40;;;12.50;99.90;;;;;;4986831;28;20460;-69
2021/03/27 11:07:50;;;;;;;1.20;1.10;;;13.70;99.90;;;;;;5023089;28;20487;-71
2021/03/27 11:10:56;;;;;;;1.90;1.30;;;14.70;99.90;;;;;;5032476;28;20463;-70
2021/03/27 11:13:55;;;;;;;1.30;1.10;;;13.00;99.90;;;;;;5020608;28;20516;-70
2021/03/27 11:17:03;;;;;;;1.00;0.73;;;10.80;99.90;;;;;;4985715;28;20480;-70
2021/03/27 11:20:06;;;;;;;2.47;1.63;;;9.70;99.90;;;;;;4986884;28;20466;-70
2021/03/27 11:23:09;;;;;;;3.00;1.20;;;9.30;99.90;;;;;;5026021;28;20951;-69
2021/03/27 11:26:27;;;;;;;2.40;1.40;;;9.10;99.90;;;;;;4949839;28;21232;-70
2021/03/27 11:28:59;;;;;;;2.10;1.20;;;9.40;99.90;;;;;;4955627;28;20956;-69
2021/03/27 11:31:36;;;;;;;3.20;1.57;;;11.00;99.90;;;;;;5017716;28;20459;-71
2021/03/27 11:34:24;;;;;;;1.23;1.10;;;12.30;99.90;;;;;;5026644;28;20872;-70
2021/03/27 11:37:02;;;;;;;1.87;1.57;;;12.10;99.90;;;;;;5023078;28;21029;-70
2021/03/27 11:39:38;;;;;;;2.50;2.30;;;12.00;99.90;;;;;;5029462;28;20507;-70
2021/03/27 11:42:15;;;;;;;2.90;1.63;;;12.60;99.90;;;;;;5038313;28;20458;-70
2021/03/27 11:44:57;;;;;;;4.50;2.30;;;11.70;99.90;;;;;;5028037;28;20657;-70
2021/03/27 11:47:33;;;;;;;1.50;1.40;;;10.90;99.90;;;;;;5028389;28;20525;-71
2021/03/27 11:50:10;;;;;;;2.90;1.70;;;10.30;99.90;;;;;;5031767;28;20433;-70
2021/03/27 11:52:45;;;;;;;2.80;2.57;;;9.70;99.90;;;;;;5027594;28;20472;-69
2021/03/27 11:55:24;;;;;;;4.40;2.43;;;8.90;99.90;;;;;;5032610;28;20474;-71
2021/03/27 11:57:56;;;;;;;3.57;2.50;;;8.10;99.90;;;;;;5026421;28;20506;-70
2021/03/27 12:00:50;;;;;;;3.00;1.53;;;8.00;99.90;;;;;;5040775;28;20437;-70
2021/03/27 12:03:31;;;;;;;2.63;1.73;;;8.60;99.90;;;;;;5038776;28;20445;-69
2021/03/27 12:06:11;;;;;;;4.30;3.90;;;10.10;99.90;;;;;;5040208;28;21189;-71
2021/03/27 12:08:48;;;;;;;7.20;1.77;;;11.50;99.90;;;;;;5037150;28;20517;-70
2021/03/27 12:11:28;;;;;;;3.47;2.20;;;12.20;99.90;;;;;;5049114;28;20511;-70
2021/03/27 12:14:02;;;;;;;1.37;1.27;;;12.40;99.90;;;;;;5037581;28;20459;-71
2021/03/27 12:16:36;;;;;;;9.83;2.60;;;12.40;99.90;;;;;;5039414;28;20544;-70
2021/03/27 12:19:27;;;;;;;3.97;1.53;;;12.60;99.90;;;;;;5039924;28;20467;-71
2021/03/27 12:22:02;;;;;;;2.57;1.60;;;12.40;99.90;;;;;;5045057;28;21173;-70
2021/03/27 12:24:43;;;;;;;2.30;1.63;;;11.00;99.90;;;;;;5048291;28;20466;-71
2021/03/27 12:27:23;;;;;;;2.03;1.47;;;11.60;99.90;;;;;;5043414;28;20562;-70
2021/03/27 12:29:59;;;;;;;2.90;1.60;;;13.10;99.90;;;;;;5044560;28;20508;-70
2021/03/27 12:32:41;;;;;;;2.47;1.70;;;13.30;99.90;;;;;;5041268;28;20463;-71
2021/03/27 12:35:19;;;;;;;1.83;1.10;;;12.70;99.90;;;;;;5044927;28;20525;-69
2021/03/27 12:38:00;;;;;;;7.40;1.30;;;12.70;99.90;;;;;;5045825;28;20507;-70
2021/03/27 12:40:32;;;;;;;1.73;1.33;;;12.80;99.90;;;;;;5041988;28;20495;-71
2021/03/27 12:43:07;;;;;;;1.50;1.23;;;13.70;99.90;;;;;;5042303;28;20508;-71
2021/03/27 12:45:36;;;;;;;2.80;2.33;;;14.30;99.90;;;;;;5044589;28;20477;-70
2021/03/27 12:48:20;;;;;;;2.70;1.43;;;14.40;99.90;;;;;;5040239;28;20483;-71
2021/03/27 12:51:16;;;;;;;2.03;1.53;;;13.20;99.90;;;;;;5049583;28;20542;-70
2021/03/27 12:54:05;;;;;;;2.20;1.43;;;12.10;99.90;;;;;;5035823;28;20467;-70
2021/03/27 12:57:10;;;;;;;1.60;1.10;;;12.70;99.90;;;;;;5050651;28;20874;-71
2021/03/27 13:00:05;;;;;;;4.50;1.30;;;12.40;99.90;;;;;;5029944;28;20489;-70
2021/03/27 13:02:51;;;;;;;2.07;1.50;;;13.50;99.90;;;;;;5044646;28;20463;-70
2021/03/27 13:05:33;;;;;;;1.87;1.10;;;14.60;99.90;;;;;;5046625;28;20456;-71
2021/03/27 13:08:11;;;;;;;4.00;1.43;;;14.70;97.90;;;;;;5047533;28;20818;-69
2021/03/27 13:10:57;;;;;;;1.93;1.30;;;14.30;99.60;;;;;;5048672;28;20805;-69
2021/03/27 13:13:59;;;;;;;1.50;1.00;;;15.20;99.90;;;;;;5032947;28;22640;-71
2021/03/27 13:16:35;;;;;;;1.63;1.40;;;16.00;94.40;;;;;;5042430;28;20603;-70
2021/03/27 13:19:14;;;;;;;6.93;1.60;;;15.60;94.20;;;;;;5032542;28;22805;-70
2021/03/27 13:22:08;;;;;;;4.30;1.10;;;16.20;95.10;;;;;;5043312;28;20446;-70
2021/03/27 13:25:12;;;;;;;1.13;1.00;;;16.00;90.90;;;;;;5044709;28;20433;-70
2021/03/27 13:27:43;;;;;;;1.40;0.90;;;15.80;90.50;;;;;;5031290;28;20469;-70
2021/03/27 13:30:20;;;;;;;1.40;0.97;;;15.00;87.70;;;;;;5038210;28;20479;-71
2021/03/27 13:32:57;;;;;;;2.70;1.10;;;14.40;86.00;;;;;;5050379;28;21175;-71
2021/03/27 13:35:35;;;;;;;1.73;1.47;;;15.20;90.50;;;;;;5039258;28;20576;-71
2021/03/27 13:38:08;;;;;;;6.63;1.93;;;15.20;86.60;;;;;;5036389;28;20474;-70
2021/03/27 13:40:38;;;;;;;3.50;3.00;;;15.10;89.90;;;;;;5047390;28;20456;-69
2021/03/27 13:43:12;;;;;;;1.70;1.00;;;14.50;87.90;;;;;;5041568;28;20462;-70
2021/03/27 13:45:50;;;;;;;1.30;0.97;;;14.40;81.50;;;;;;5033948;28;20481;-70
2021/03/27 13:48:36;;;;;;;3.87;1.63;;;13.20;81.20;;;;;;5035624;28;20493;-69
2021/03/27 13:51:19;;;;;;;1.67;1.00;;;12.60;86.50;;;;;;5036312;28;20492;-70
2021/03/27 13:53:50;;;;;;;1.63;0.97;;;12.20;89.90;;;;;;5039932;28;20459;-70
2021/03/27 13:56:28;;;;;;;4.60;1.30;;;12.10;91.70;;;;;;5030287;28;20525;-70
2021/03/27 13:59:34;;;;;;;3.60;1.43;;;12.00;92.70;;;;;;5029189;28;20485;-69
2021/03/27 14:02:51;;;;;;;1.90;1.13;;;11.80;91.90;;;;;;5031557;28;20459;-70
2021/03/27 14:05:38;;;;;;;2.43;2.03;;;11.40;93.10;;;;;;5035945;28;20467;-70
2021/03/27 14:08:14;;;;;;;3.43;3.23;;;11.40;93.50;;;;;;5021282;28;20529;-69
2021/03/27 14:10:46;;;;;;;3.33;1.27;;;11.40;94.20;;;;;;5038382;28;20497;-69
2021/03/27 14:13:18;;;;;;;1.27;0.80;;;11.20;93.60;;;;;;5041035;28;20608;-69
2021/03/27 14:15:57;;;;;;;5.83;1.37;;;12.10;92.60;;;;;;5048688;28;20456;-68
2021/03/27 14:18:52;;;;;;;4.43;1.57;;;12.00;91.40;;;;;;5035400;28;20466;-69